createdAt,value
2018-12-22T00:02:24.965Z,88.70
2018-12-22T00:04:52.638Z,88.80
2018-12-22T00:09:47.546Z,88.90
2018-12-22T00:12:15.001Z,88.90
2018-12-22T00:14:42.515Z,89.00
2018-12-22T00:17:10.134Z,89.00
2018-12-22T00:19:37.701Z,89.10
2018-12-22T00:22:05.531Z,89.10
2018-12-22T00:24:33.010Z,88.90
2018-12-22T00:27:00.685Z,89.00
2018-12-22T00:29:28.403Z,89.40
2018-12-22T00:34:23.302Z,90.10
2018-12-22T00:36:50.731Z,90.70
2018-12-22T00:39:18.401Z,91.20
2018-12-22T00:41:45.843Z,91.50
2018-12-22T00:44:13.479Z,91.80
2018-12-22T00:46:40.992Z,92.00
2018-12-22T00:51:36.053Z,92.50
2018-12-22T00:54:03.556Z,92.40
2018-12-22T00:56:32.142Z,92.40
2018-12-22T00:58:59.563Z,92.50
2018-12-22T01:03:54.870Z,92.60
2018-12-22T01:11:17.364Z,92.80
2018-12-22T01:16:12.588Z,92.70
2018-12-22T01:18:40.170Z,92.70
2018-12-22T01:21:07.614Z,92.70
2018-12-22T01:23:35.040Z,92.70
2018-12-22T01:26:02.691Z,92.60
2018-12-22T01:28:30.190Z,92.60
2018-12-22T01:30:57.648Z,92.80
2018-12-22T01:33:25.122Z,92.90
2018-12-22T01:35:52.535Z,93.00
2018-12-22T01:38:19.975Z,93.00
2018-12-22T01:40:47.419Z,93.10
2018-12-22T01:43:15.125Z,93.10
2018-12-22T01:45:42.704Z,93.10
2018-12-22T01:48:10.437Z,93.00
2018-12-22T01:50:37.885Z,93.00
2018-12-22T01:53:05.491Z,93.00
2018-12-22T01:55:32.941Z,93.00
2018-12-22T01:58:00.456Z,93.00
2018-12-22T02:02:55.536Z,93.10
2018-12-22T02:05:23.003Z,93.20
2018-12-22T02:10:17.997Z,93.30
2018-12-22T02:12:45.424Z,93.50
2018-12-22T02:15:12.881Z,93.60
2018-12-22T02:20:08.135Z,93.60
2018-12-22T02:22:35.779Z,93.60
2018-12-22T02:25:03.555Z,93.90
2018-12-22T02:27:30.998Z,93.90
2018-12-22T02:32:25.873Z,94.10
2018-12-22T02:34:53.334Z,93.90
2018-12-22T02:37:20.950Z,94.00
2018-12-22T02:39:48.573Z,94.00
2018-12-22T02:42:16.118Z,93.90
2018-12-22T02:44:43.684Z,93.80
2018-12-22T02:47:11.347Z,93.70
2018-12-22T02:49:38.873Z,93.80
2018-12-22T02:52:06.295Z,93.80
2018-12-22T02:59:28.721Z,93.90
2018-12-22T03:01:56.281Z,94.00
2018-12-22T03:04:23.966Z,93.90
2018-12-22T03:06:51.397Z,93.90
2018-12-22T03:11:46.533Z,93.80
2018-12-22T03:16:41.619Z,93.80
2018-12-22T03:19:09.263Z,93.80
2018-12-22T03:24:04.387Z,93.70
2018-12-22T03:28:59.496Z,93.60
2018-12-22T03:33:55.418Z,93.50
2018-12-22T03:36:22.851Z,93.50
2018-12-22T03:41:18.025Z,93.30
2018-12-22T03:43:45.665Z,93.20
2018-12-22T03:46:13.127Z,93.10
2018-12-22T03:48:40.900Z,93.10
2018-12-22T03:51:08.439Z,93.10
2018-12-22T03:53:36.080Z,93.20
2018-12-22T03:56:03.747Z,92.90
2018-12-22T04:00:58.778Z,92.80
2018-12-22T04:05:53.960Z,92.30
2018-12-22T04:08:21.435Z,92.20
2018-12-22T04:10:48.903Z,92.10
2018-12-22T04:15:43.811Z,91.80
2018-12-22T04:18:11.271Z,91.70
2018-12-22T04:20:38.755Z,91.80
2018-12-22T04:23:06.351Z,91.50
2018-12-22T04:25:33.876Z,91.40
2018-12-22T04:28:01.306Z,91.10
2018-12-22T04:30:28.834Z,90.80
2018-12-22T04:32:56.569Z,90.90
2018-12-22T04:42:46.599Z,90.50
2018-12-22T04:45:14.118Z,90.10
2018-12-22T04:50:09.433Z,89.70
2018-12-22T04:55:04.708Z,89.20
2018-12-22T04:57:32.177Z,89.40
2018-12-22T05:02:27.294Z,88.90
2018-12-22T05:07:22.411Z,88.40
2018-12-22T05:12:17.476Z,88.00
2018-12-22T05:14:45.155Z,88.10
2018-12-22T05:19:40.094Z,87.50
2018-12-22T05:22:07.751Z,87.60
2018-12-22T05:27:02.712Z,87.20
2018-12-22T05:29:30.408Z,87.10
2018-12-22T05:35:32.249Z,87.30
2018-12-22T05:40:27.291Z,87.20
2018-12-22T05:42:54.907Z,87.20
2018-12-22T05:50:24.917Z,86.90
2018-12-22T05:52:52.341Z,86.80
2018-12-22T05:55:19.805Z,86.90
2018-12-22T05:57:47.255Z,86.90
2018-12-22T06:02:42.197Z,86.70
2018-12-22T06:07:38.057Z,86.30
2018-12-22T06:10:07.155Z,86.30
2018-12-22T06:12:34.621Z,86.10
2018-12-22T06:15:02.075Z,86.00
2018-12-22T06:17:29.531Z,85.80
2018-12-22T06:19:56.971Z,85.70
2018-12-22T06:22:24.408Z,85.70
2018-12-22T06:24:52.091Z,85.50
2018-12-22T06:29:47.291Z,85.60
2018-12-22T06:32:14.855Z,85.50
2018-12-22T06:34:43.325Z,85.60
2018-12-22T06:37:25.443Z,85.40
2018-12-22T06:42:20.342Z,85.30
2018-12-22T06:44:47.820Z,84.60
2018-12-22T06:47:15.340Z,85.10
2018-12-22T06:55:08.876Z,85.20
2018-12-22T06:57:36.486Z,84.90
2018-12-22T07:00:07.080Z,85.10
2018-12-22T07:05:30.997Z,85.30
2018-12-22T07:07:58.653Z,85.20
2018-12-22T07:10:26.350Z,85.20
2018-12-22T07:12:54.078Z,84.90
2018-12-22T07:17:49.055Z,84.60
2018-12-22T07:20:16.550Z,84.20
2018-12-22T07:22:44.042Z,83.80
2018-12-22T07:25:11.719Z,84.20
2018-12-22T07:27:39.315Z,83.90
2018-12-22T07:30:09.107Z,83.80
2018-12-22T07:32:36.566Z,83.50
2018-12-22T07:35:05.008Z,83.40
2018-12-22T07:39:59.868Z,82.60
2018-12-22T07:42:33.655Z,82.60
2018-12-22T07:45:01.095Z,82.60
2018-12-22T07:47:28.523Z,82.70
2018-12-22T07:49:56.101Z,82.70
2018-12-22T07:54:51.169Z,82.90
2018-12-22T07:57:18.660Z,83.00
2018-12-22T08:02:13.543Z,82.10
2018-12-22T08:04:40.997Z,82.40
2018-12-22T08:07:08.423Z,82.10
2018-12-22T08:12:24.409Z,82.60
2018-12-22T08:17:19.537Z,82.60
2018-12-22T08:19:46.995Z,82.80
2018-12-22T08:22:14.472Z,82.70
2018-12-22T08:24:42.295Z,82.90
2018-12-22T08:27:09.799Z,83.10
2018-12-22T08:29:37.294Z,83.70
2018-12-22T08:32:04.804Z,84.40
2018-12-22T08:34:32.304Z,84.80
2018-12-22T08:36:59.746Z,85.50
2018-12-22T08:41:54.980Z,86.90
2018-12-22T08:44:22.735Z,87.50
2018-12-22T08:46:50.468Z,88.10
2018-12-22T08:49:17.975Z,88.60
2018-12-22T08:51:45.472Z,88.90
2018-12-22T08:54:13.169Z,89.50
2018-12-22T08:56:41.657Z,89.40
2018-12-22T09:04:04.602Z,90.00
2018-12-22T09:06:32.105Z,90.20
2018-12-22T09:08:59.763Z,90.30
2018-12-22T09:11:27.392Z,90.00
2018-12-22T09:13:55.049Z,89.80
2018-12-22T09:16:22.708Z,90.00
2018-12-22T09:18:50.135Z,89.80
2018-12-22T09:23:45.292Z,88.90
2018-12-22T09:26:12.815Z,88.90
2018-12-22T09:31:08.056Z,88.50
2018-12-22T09:36:02.967Z,88.40
2018-12-22T09:38:30.479Z,88.30
2018-12-22T09:40:58.452Z,88.00
2018-12-22T09:45:53.328Z,87.30
2018-12-22T09:48:20.863Z,87.30
2018-12-22T09:53:16.128Z,86.60
2018-12-22T09:55:43.820Z,86.50
2018-12-22T10:03:06.273Z,85.70
2018-12-22T10:05:35.627Z,85.40
2018-12-22T10:08:03.128Z,85.40
2018-12-22T10:10:30.582Z,84.40
2018-12-22T10:12:58.235Z,84.40
2018-12-22T10:15:25.733Z,83.70
2018-12-22T10:17:53.368Z,84.00
2018-12-22T10:20:21.024Z,84.10
2018-12-22T10:25:16.139Z,83.90
2018-12-22T10:30:12.351Z,84.10
2018-12-22T10:32:39.781Z,83.90
2018-12-22T10:35:13.491Z,83.90
2018-12-22T10:37:40.964Z,83.70
2018-12-22T10:40:09.280Z,83.90
2018-12-22T10:42:36.782Z,84.00
2018-12-22T10:47:33.276Z,84.10
2018-12-22T10:52:28.439Z,84.40
2018-12-22T10:57:23.373Z,84.20
2018-12-22T10:59:50.810Z,84.30
2018-12-22T11:02:18.384Z,84.00
2018-12-22T11:04:46.035Z,84.10
2018-12-22T11:07:13.956Z,83.90
2018-12-22T11:12:08.911Z,83.50
2018-12-22T11:14:36.469Z,83.70
2018-12-22T11:24:26.496Z,83.70
2018-12-22T11:26:54.144Z,83.40
2018-12-22T11:29:48.423Z,83.30
2018-12-22T11:34:43.338Z,83.00
2018-12-22T11:37:10.898Z,82.60
2018-12-22T11:39:38.413Z,82.80
2018-12-22T11:44:33.321Z,82.30
2018-12-22T11:47:04.744Z,82.10
2018-12-22T11:49:32.772Z,81.90
2018-12-22T11:52:29.570Z,81.20
2018-12-22T11:59:51.905Z,81.10
2018-12-22T12:02:19.403Z,80.60
2018-12-22T12:07:14.587Z,80.60
2018-12-22T12:09:42.311Z,80.50
2018-12-22T12:12:10.592Z,80.60
2018-12-22T12:14:38.117Z,80.80
2018-12-22T12:19:33.536Z,79.80
2018-12-22T12:24:36.168Z,80.00
2018-12-22T12:29:31.266Z,80.40
2018-12-22T12:31:58.733Z,80.80
2018-12-22T12:34:26.179Z,81.10
2018-12-22T12:36:53.757Z,81.00
2018-12-22T12:39:21.566Z,81.10
2018-12-22T12:41:49.078Z,81.10
2018-12-22T12:46:44.183Z,81.10
2018-12-22T12:51:39.137Z,81.30
2018-12-22T12:54:06.591Z,81.30
2018-12-22T12:56:34.268Z,81.40
2018-12-22T12:59:01.722Z,81.60
2018-12-22T13:01:29.186Z,81.30
2018-12-22T13:03:56.608Z,81.70
2018-12-22T13:06:24.194Z,81.80
2018-12-22T13:11:19.133Z,81.70
2018-12-22T13:13:46.960Z,81.90
2018-12-22T13:16:14.428Z,81.90
2018-12-22T13:18:41.861Z,81.80
2018-12-22T13:21:09.972Z,81.90
2018-12-22T13:30:59.984Z,81.90
2018-12-22T13:36:21.198Z,82.00
2018-12-22T13:38:56.028Z,82.30
2018-12-22T13:41:23.460Z,82.30
2018-12-22T13:43:50.908Z,82.50
2018-12-22T13:46:18.371Z,82.50
2018-12-22T13:48:46.410Z,82.80
2018-12-22T13:51:14.343Z,82.70
2018-12-22T13:53:41.931Z,82.50
2018-12-22T13:56:09.421Z,82.50
2018-12-22T14:06:00.386Z,82.50
2018-12-22T14:08:28.638Z,82.40
2018-12-22T14:10:56.479Z,82.30
2018-12-22T14:15:51.755Z,82.30
2018-12-22T14:18:25.737Z,82.10
2018-12-22T14:20:53.196Z,82.00
2018-12-22T14:23:23.003Z,82.00
2018-12-22T14:30:46.489Z,81.80
2018-12-22T14:33:14.003Z,81.80
2018-12-22T14:35:41.499Z,81.70
2018-12-22T14:38:09.000Z,81.80
2018-12-22T14:40:36.533Z,81.90
2018-12-22T14:45:31.398Z,82.10
2018-12-22T14:47:58.828Z,82.40
2018-12-22T14:50:26.505Z,82.60
2018-12-22T14:55:21.567Z,83.70
2018-12-22T15:00:20.775Z,84.70
2018-12-22T15:02:48.284Z,85.20
2018-12-22T15:05:15.789Z,85.50
2018-12-22T15:07:43.279Z,85.70
2018-12-22T15:10:10.783Z,86.00
2018-12-22T15:12:38.433Z,86.10
2018-12-22T15:15:10.193Z,86.30
2018-12-22T15:17:40.283Z,86.50
2018-12-22T15:20:28.455Z,86.60
2018-12-22T15:22:56.067Z,86.80
2018-12-22T15:27:51.242Z,86.80
2018-12-22T15:30:18.734Z,86.90
2018-12-22T15:32:54.173Z,86.90
2018-12-22T15:40:11.552Z,86.60
2018-12-22T15:42:39.107Z,86.60
2018-12-22T15:45:22.403Z,86.30
2018-12-22T15:50:30.919Z,86.10
2018-12-22T15:52:59.139Z,85.90
2018-12-22T16:00:21.597Z,85.70
2018-12-22T16:02:53.007Z,85.80
2018-12-22T16:05:18.623Z,85.70
2018-12-22T16:07:46.296Z,85.70
2018-12-22T16:10:15.995Z,85.70
2018-12-22T16:12:43.568Z,85.70
2018-12-22T16:15:17.939Z,85.70
2018-12-22T16:17:45.564Z,85.80
2018-12-22T16:22:44.115Z,85.90
2018-12-22T16:25:12.831Z,85.80
2018-12-22T16:40:07.460Z,86.70
2018-12-22T16:42:34.924Z,86.60
2018-12-22T16:47:30.717Z,86.80
2018-12-22T16:52:25.768Z,86.50
2018-12-22T16:54:53.300Z,86.50
2018-12-22T16:59:48.491Z,86.80
2018-12-22T17:02:16.104Z,87.20
2018-12-22T17:07:11.467Z,88.30
2018-12-22T17:09:39.123Z,88.30
2018-12-22T17:12:06.683Z,88.70
2018-12-22T17:14:34.438Z,89.00
2018-12-22T17:17:01.840Z,89.20
2018-12-22T17:19:29.451Z,89.60
2018-12-22T17:26:53.067Z,90.10
2018-12-22T17:29:21.548Z,90.10
2018-12-22T17:31:49.348Z,90.30
2018-12-22T17:36:44.334Z,90.20
2018-12-22T17:41:39.333Z,90.30
2018-12-22T17:49:02.445Z,90.40
2018-12-22T17:51:30.072Z,90.30
2018-12-22T17:53:57.596Z,90.40
2018-12-22T17:56:25.027Z,90.30
2018-12-22T17:58:52.848Z,90.40
2018-12-22T18:01:20.394Z,90.40
2018-12-22T18:03:48.150Z,90.30
2018-12-22T18:06:15.857Z,90.50
2018-12-22T18:13:39.404Z,90.70
2018-12-22T18:16:07.083Z,90.80
2018-12-22T18:21:02.412Z,91.00
2018-12-22T18:25:57.528Z,91.10
2018-12-22T18:33:20.153Z,91.20
2018-12-22T18:35:47.919Z,91.30
2018-12-22T18:40:43.089Z,91.40
2018-12-22T18:43:10.603Z,91.50
2018-12-22T18:45:38.173Z,91.40
2018-12-22T18:50:33.464Z,91.40
2018-12-22T18:53:01.019Z,91.60
2018-12-22T18:55:28.581Z,91.70
2018-12-22T18:57:56.327Z,91.60
2018-12-22T19:02:51.739Z,91.80
2018-12-22T19:07:47.650Z,91.80
2018-12-22T19:10:19.728Z,91.80
2018-12-22T19:15:14.764Z,91.70
2018-12-22T19:17:42.419Z,91.80
2018-12-22T19:20:16.224Z,91.80
2018-12-22T19:22:43.775Z,91.80
2018-12-22T19:25:11.257Z,91.80
2018-12-22T19:27:38.831Z,91.80
2018-12-22T19:30:08.112Z,91.80
2018-12-22T19:32:35.613Z,91.70
2018-12-22T19:35:03.275Z,91.70
2018-12-22T19:37:30.865Z,91.80
2018-12-22T19:42:25.776Z,91.90
2018-12-22T19:44:54.251Z,92.00
2018-12-22T19:49:49.392Z,92.10
2018-12-22T19:52:16.862Z,92.10
2018-12-22T19:54:44.280Z,92.10
2018-12-22T19:57:11.769Z,92.10
2018-12-22T19:59:39.479Z,92.20
2018-12-22T20:02:07.044Z,92.10
2018-12-22T20:04:34.774Z,92.00
2018-12-22T20:07:02.365Z,91.90
2018-12-22T20:09:29.975Z,91.80
2018-12-22T20:11:57.399Z,91.80
2018-12-22T20:14:24.930Z,91.70
2018-12-22T20:16:52.587Z,91.60
2018-12-22T20:19:20.068Z,91.60
2018-12-22T20:24:15.158Z,91.60
2018-12-22T20:26:43.007Z,91.50
2018-12-22T20:29:10.460Z,91.50
2018-12-22T20:31:37.906Z,91.40
2018-12-22T20:34:11.012Z,91.30
2018-12-22T20:39:02.330Z,91.20
2018-12-22T20:41:29.782Z,91.20
2018-12-22T20:43:57.443Z,91.10
2018-12-22T20:46:25.097Z,91.10
2018-12-22T20:48:52.595Z,91.10
2018-12-22T20:51:20.058Z,91.10
2018-12-22T20:56:15.015Z,90.90
2018-12-22T20:58:42.452Z,90.90
2018-12-22T21:01:10.024Z,90.90
2018-12-22T21:06:09.924Z,90.90
2018-12-22T21:11:04.971Z,90.90
2018-12-22T21:13:32.464Z,91.10
2018-12-22T21:15:59.914Z,90.90
2018-12-22T21:18:27.377Z,90.90
2018-12-22T21:23:22.444Z,90.90
2018-12-22T21:25:49.884Z,90.90
2018-12-22T21:28:17.420Z,90.90
2018-12-22T21:30:45.023Z,90.80
2018-12-22T21:33:12.569Z,90.60
2018-12-22T21:35:40.182Z,90.70
2018-12-22T21:38:07.723Z,90.70
2018-12-22T21:40:35.229Z,90.70
2018-12-22T21:43:02.722Z,90.70
2018-12-22T21:45:30.339Z,90.70
2018-12-22T21:47:57.772Z,90.70
2018-12-22T21:50:25.200Z,90.70
2018-12-22T21:52:52.633Z,90.70
2018-12-22T21:57:47.556Z,90.60
2018-12-22T22:02:42.457Z,90.60
2018-12-22T22:05:09.883Z,90.70
2018-12-22T22:12:32.250Z,90.80
2018-12-22T22:14:59.717Z,90.80
2018-12-22T22:17:27.143Z,90.70
2018-12-22T22:19:54.583Z,90.70
2018-12-22T22:22:22.104Z,90.70
2018-12-22T22:24:49.544Z,90.60
2018-12-22T22:27:16.991Z,90.60
2018-12-22T22:32:11.938Z,90.40
2018-12-22T22:34:45.615Z,90.40
2018-12-22T22:37:08.920Z,90.50
2018-12-22T22:39:36.594Z,90.30
2018-12-22T22:42:04.118Z,90.40
2018-12-22T22:49:26.611Z,90.20
2018-12-22T22:54:21.666Z,90.30
2018-12-22T22:59:16.831Z,90.40
2018-12-22T23:01:44.324Z,90.40
2018-12-22T23:04:11.805Z,90.50
2018-12-22T23:09:06.873Z,90.40
2018-12-22T23:14:01.963Z,90.30
2018-12-22T23:18:57.068Z,90.30
2018-12-22T23:21:24.557Z,90.30
2018-12-22T23:23:52.015Z,90.20
2018-12-22T23:26:19.440Z,90.20
2018-12-22T23:31:14.447Z,90.10
2018-12-22T23:36:09.446Z,90.10
2018-12-22T23:38:36.916Z,90.10
2018-12-22T23:41:04.587Z,90.10
2018-12-22T23:43:32.101Z,90.10
2018-12-22T23:45:59.684Z,90.10
2018-12-22T23:48:27.228Z,90.10
2018-12-22T23:53:22.252Z,90.10
2018-12-22T23:55:49.697Z,90.10
2018-12-22T23:58:17.159Z,90.10
